Airport Name : Yaounde Nsimalen

Other Name : Yaounde Nsimalen

ICAO : FKYS

IATA : NSI

FAA :

Latitude : 3.722556

Longitude : 11.553269

Country : Cameroon

Local Date and Time : 30 May 2024 07:28

 

TAF (Terminal Aerodrome Forecast)

TAF FKYS 300500Z 3006/3106 16003KT 6000 BKN006 BECMG 3008/3010 BKN016 TEMPO 3016/3020 TS PROB30 TEMPO 3016/3020 3000 TSRA BECMG 3022/3024 BKN006 FEW016CB

 

METAR (METeorological Aerodrome Report)

FKYS 300600Z 22003KT 180V250 6000 BKN006 23/22 Q1017 NOSIG

FKYS 300530Z 16002KT 6000 BKN006 22/21 Q1018 NOSIG

FKYS 300500Z 31003KT 6000 BKN006 23/22 Q1017 NOSIG

FKYS 300430Z VRB02KT 8000 BKN006 23/22 Q1017 NOSIG

FKYS 300400Z VRB02KT 8000 BKN006 23/22 Q1017 NOSIG

FKYS 300330Z 26003KT 8000 BKN006 23/22 Q1017 NOSIG

FKYS 300300Z 25004KT 8000 BKN006 23/22 Q1017 NOSIG

FKYS 300230Z VRB03KT 8000 BKN006 23/22 Q1016 NOSIG